createdAt,value
2018-02-18T00:01:50.333Z,12.70
2018-02-18T00:04:16.943Z,13.50
2018-02-18T00:06:43.543Z,13.10
2018-02-18T00:09:10.134Z,13.43
2018-02-18T00:11:36.751Z,20.00
2018-02-18T00:14:03.797Z,19.93
2018-02-18T00:16:30.380Z,14.77
2018-02-18T00:18:57.003Z,22.53
2018-02-18T00:21:24.348Z,14.87
2018-02-18T00:23:50.931Z,18.20
2018-02-18T00:26:17.546Z,21.03
2018-02-18T00:28:44.156Z,14.17
2018-02-18T00:31:10.744Z,17.50
2018-02-18T00:33:37.898Z,14.37
2018-02-18T00:36:04.762Z,16.23
2018-02-18T00:38:31.347Z,15.17
2018-02-18T00:40:58.254Z,16.83
2018-02-18T00:43:24.848Z,17.37
2018-02-18T00:45:51.443Z,15.07
2018-02-18T00:48:19.063Z,18.13
2018-02-18T00:50:45.661Z,15.80
2018-02-18T00:53:12.279Z,17.48
2018-02-18T00:55:38.914Z,13.13
2018-02-18T00:58:05.498Z,13.80
2018-02-18T01:00:32.097Z,19.83
2018-02-18T01:02:59.772Z,19.30
2018-02-18T01:05:26.411Z,17.60
2018-02-18T01:07:53.015Z,17.45
2018-02-18T01:10:19.613Z,14.70
2018-02-18T01:12:46.207Z,19.15
2018-02-18T01:15:12.808Z,19.55
2018-02-18T01:17:40.887Z,15.97
2018-02-18T01:20:07.490Z,15.70
2018-02-18T01:22:34.083Z,13.13
2018-02-18T01:25:00.686Z,12.88
2018-02-18T01:27:27.272Z,15.73
2018-02-18T01:29:54.790Z,12.00
2018-02-18T01:32:21.360Z,12.60
2018-02-18T01:34:47.963Z,12.23
2018-02-18T01:37:14.655Z,14.93
2018-02-18T01:39:41.260Z,14.50
2018-02-18T01:42:07.849Z,13.27
2018-02-18T01:44:35.260Z,19.83
2018-02-18T01:47:01.876Z,14.53
2018-02-18T01:49:28.465Z,14.33
2018-02-18T01:51:55.074Z,17.13
2018-02-18T01:54:21.939Z,14.93
2018-02-18T01:56:49.357Z,16.83
2018-02-18T01:59:16.011Z,14.03
2018-02-18T02:01:42.591Z,14.87
2018-02-18T02:04:09.217Z,15.15
2018-02-18T02:06:35.789Z,13.90
2018-02-18T02:09:02.396Z,12.73
2018-02-18T02:11:29.971Z,14.10
2018-02-18T02:13:56.585Z,13.93
2018-02-18T02:16:23.194Z,18.55
2018-02-18T02:18:50.136Z,16.37
2018-02-18T02:21:16.751Z,12.48
2018-02-18T02:23:43.664Z,13.35
2018-02-18T02:26:11.247Z,12.68
2018-02-18T02:28:37.839Z,18.05
2018-02-18T02:31:04.439Z,16.65
2018-02-18T02:33:31.064Z,15.18
2018-02-18T02:35:57.656Z,13.45
2018-02-18T02:38:24.251Z,14.05
2018-02-18T02:40:51.088Z,12.45
2018-02-18T02:43:17.700Z,20.37
2018-02-18T02:48:27.223Z,19.33
2018-02-18T02:50:53.827Z,16.60
2018-02-18T02:53:20.428Z,15.80
2018-02-18T02:55:47.197Z,17.52
2018-02-18T02:58:13.824Z,14.63
2018-02-18T03:00:40.419Z,15.15
2018-02-18T03:03:07.015Z,15.25
2018-02-18T03:05:33.620Z,18.20
2018-02-18T03:08:00.244Z,13.62
2018-02-18T03:10:26.875Z,21.65
2018-02-18T03:12:53.468Z,22.40
2018-02-18T03:15:20.471Z,17.15
2018-02-18T03:17:47.078Z,13.27
2018-02-18T03:20:13.694Z,17.67
2018-02-18T03:22:40.311Z,15.13
2018-02-18T03:25:06.919Z,15.50
2018-02-18T03:27:33.522Z,21.40
2018-02-18T03:30:00.138Z,13.25
2018-02-18T03:32:26.719Z,13.27
2018-02-18T03:34:53.324Z,12.80
2018-02-18T03:37:19.923Z,12.80
2018-02-18T03:39:46.523Z,18.27
2018-02-18T03:42:13.147Z,12.88
2018-02-18T03:44:39.747Z,13.55
2018-02-18T03:47:07.179Z,14.52
2018-02-18T03:49:33.789Z,15.65
2018-02-18T03:52:00.395Z,9.73
2018-02-18T03:54:26.987Z,15.45
2018-02-18T03:56:53.598Z,14.68
2018-02-18T03:59:23.551Z,14.32
2018-02-18T04:04:24.800Z,11.15
2018-02-18T04:06:51.399Z,16.70
2018-02-18T04:09:17.991Z,17.62
2018-02-18T04:11:44.591Z,10.82
2018-02-18T04:14:11.193Z,17.42
2018-02-18T04:16:39.179Z,11.52
2018-02-18T04:19:05.807Z,10.93
2018-02-18T04:21:32.400Z,17.12
2018-02-18T04:23:58.976Z,14.90
2018-02-18T04:26:25.683Z,14.95
2018-02-18T04:28:52.257Z,15.48
2018-02-18T04:31:20.349Z,9.98
2018-02-18T04:33:47.032Z,15.57
2018-02-18T04:36:13.620Z,18.35
2018-02-18T04:38:40.250Z,13.13
2018-02-18T04:41:06.847Z,10.32
2018-02-18T04:43:35.932Z,10.85
2018-02-18T04:46:02.531Z,12.82
2018-02-18T04:48:29.121Z,14.70
2018-02-18T04:50:55.742Z,19.20
2018-02-18T04:53:22.351Z,12.52
2018-02-18T04:55:49.873Z,14.65
2018-02-18T04:58:16.461Z,12.15
2018-02-18T05:00:43.350Z,11.75
2018-02-18T05:03:09.948Z,11.18
2018-02-18T05:05:36.544Z,10.85
2018-02-18T05:08:03.571Z,10.88
2018-02-18T05:13:04.424Z,15.73
2018-02-18T05:15:31.543Z,13.45
2018-02-18T05:17:58.141Z,17.40
2018-02-18T05:20:30.568Z,13.75
2018-02-18T05:22:57.156Z,13.82
2018-02-18T05:25:23.757Z,12.77
2018-02-18T05:27:50.364Z,19.80
2018-02-18T05:30:16.968Z,13.43
2018-02-18T05:32:43.577Z,16.90
2018-02-18T05:35:10.370Z,12.77
2018-02-18T05:37:36.965Z,12.05
2018-02-18T05:40:03.566Z,18.23
2018-02-18T05:42:30.176Z,11.45
2018-02-18T05:44:56.771Z,10.93
2018-02-18T05:47:23.387Z,14.40
2018-02-18T05:49:49.973Z,14.05
2018-02-18T05:52:16.560Z,14.45
2018-02-18T05:54:43.161Z,18.52
2018-02-18T05:57:09.745Z,12.02
2018-02-18T05:59:36.359Z,15.43
2018-02-18T06:02:03.148Z,25.50
2018-02-18T06:04:29.764Z,14.40
2018-02-18T06:06:57.313Z,12.82
2018-02-18T06:09:23.948Z,11.70
2018-02-18T06:11:50.537Z,17.90
2018-02-18T06:14:17.129Z,11.25
2018-02-18T06:16:44.112Z,15.75
2018-02-18T06:19:11.677Z,12.45
2018-02-18T06:21:38.291Z,19.42
2018-02-18T06:24:04.907Z,11.02
2018-02-18T06:26:31.509Z,11.38
2018-02-18T06:28:58.388Z,14.23
2018-02-18T06:31:24.991Z,14.52
2018-02-18T06:33:54.232Z,11.40
2018-02-18T06:36:20.837Z,16.00
2018-02-18T06:38:47.452Z,17.15
2018-02-18T06:41:14.048Z,16.92
2018-02-18T06:43:40.643Z,17.65
2018-02-18T06:46:08.424Z,12.52
2018-02-18T06:48:35.070Z,14.07
2018-02-18T06:51:01.622Z,13.70
2018-02-18T06:53:28.231Z,16.58
2018-02-18T06:55:54.871Z,12.05
2018-02-18T06:58:22.863Z,11.23
2018-02-18T07:00:49.473Z,11.45
2018-02-18T07:03:16.056Z,12.75
2018-02-18T07:05:42.680Z,11.60
2018-02-18T07:08:09.286Z,12.10
2018-02-18T07:10:35.875Z,9.90
2018-02-18T07:13:03.255Z,16.87
2018-02-18T07:15:29.872Z,14.45
2018-02-18T07:17:56.448Z,10.85
2018-02-18T07:20:23.301Z,14.63
2018-02-18T07:22:49.896Z,15.75
2018-02-18T07:25:16.617Z,12.18
2018-02-18T07:27:43.852Z,11.07
2018-02-18T07:30:10.456Z,12.25
2018-02-18T07:32:37.046Z,13.45
2018-02-18T07:35:03.638Z,8.27
2018-02-18T07:37:30.260Z,13.88
2018-02-18T07:39:58.045Z,17.65
2018-02-18T07:42:24.648Z,11.10
2018-02-18T07:44:51.254Z,12.30
2018-02-18T07:47:17.899Z,12.95
2018-02-18T07:49:44.485Z,11.63
2018-02-18T07:52:11.077Z,15.95
2018-02-18T07:54:38.648Z,15.35
2018-02-18T07:57:05.233Z,14.50
2018-02-18T07:59:31.897Z,16.67
2018-02-18T08:01:58.541Z,13.43
2018-02-18T08:04:25.131Z,15.02
2018-02-18T08:06:52.307Z,12.70
2018-02-18T08:09:19.372Z,18.30
2018-02-18T08:11:45.988Z,15.27
2018-02-18T08:14:12.632Z,9.00
2018-02-18T08:16:39.226Z,11.63
2018-02-18T08:19:05.832Z,14.65
2018-02-18T08:21:34.132Z,13.10
2018-02-18T08:24:00.791Z,13.90
2018-02-18T08:26:27.372Z,10.00
2018-02-18T08:28:53.995Z,12.50
2018-02-18T08:31:20.576Z,15.20
2018-02-18T08:33:49.856Z,22.57
2018-02-18T08:36:16.432Z,26.17
2018-02-18T08:38:43.005Z,14.60
2018-02-18T08:41:09.579Z,11.00
2018-02-18T08:43:36.423Z,12.10
2018-02-18T08:46:03.003Z,10.43
2018-02-18T08:48:29.584Z,13.67
2018-02-18T08:50:56.175Z,14.47
2018-02-18T08:53:22.756Z,8.37
2018-02-18T08:55:49.324Z,13.37
2018-02-18T08:58:16.195Z,10.60
2018-02-18T09:00:42.752Z,8.80
2018-02-18T09:03:09.381Z,12.57
2018-02-18T09:05:36.301Z,12.07
2018-02-18T09:08:02.872Z,9.03
2018-02-18T09:10:29.444Z,7.90
2018-02-18T09:12:56.040Z,8.63
2018-02-18T09:15:22.608Z,7.13
2018-02-18T09:17:49.184Z,6.87
2018-02-18T09:20:15.775Z,13.37
2018-02-18T09:22:42.360Z,9.43
2018-02-18T09:25:08.920Z,8.50
2018-02-18T09:27:35.501Z,8.43
2018-02-18T09:30:02.076Z,6.30
2018-02-18T09:32:28.678Z,10.20
2018-02-18T09:34:55.252Z,8.90
2018-02-18T09:37:21.828Z,8.77
2018-02-18T09:39:48.784Z,14.23
2018-02-18T09:42:15.360Z,13.80
2018-02-18T09:44:41.938Z,13.17
2018-02-18T09:47:08.515Z,7.13
2018-02-18T09:49:35.115Z,11.40
2018-02-18T09:52:01.706Z,13.80
2018-02-18T09:54:28.287Z,10.00
2018-02-18T09:56:54.863Z,10.17
2018-02-18T09:59:21.455Z,10.33
2018-02-18T10:01:48.024Z,7.30
2018-02-18T10:04:14.596Z,5.57
2018-02-18T10:06:41.205Z,9.03
2018-02-18T10:09:07.776Z,9.90
2018-02-18T10:11:34.340Z,5.87
2018-02-18T10:14:00.949Z,4.60
2018-02-18T10:16:27.523Z,9.67
2018-02-18T10:18:54.087Z,7.00
2018-02-18T10:21:20.659Z,6.10
2018-02-18T10:23:47.252Z,8.93
2018-02-18T10:26:13.828Z,12.90
2018-02-18T10:28:40.423Z,5.73
2018-02-18T10:31:07.013Z,7.17
2018-02-18T10:33:33.584Z,9.93
2018-02-18T10:36:00.164Z,5.87
2018-02-18T10:38:26.752Z,11.90
2018-02-18T10:40:53.324Z,8.10
2018-02-18T10:43:20.772Z,38.20
2018-02-18T10:45:47.357Z,9.83
2018-02-18T10:48:13.932Z,5.60
2018-02-18T10:50:40.504Z,9.73
2018-02-18T10:53:07.108Z,10.90
2018-02-18T10:55:33.686Z,7.57
2018-02-18T10:58:00.261Z,7.90
2018-02-18T11:00:26.856Z,8.10
2018-02-18T11:02:53.429Z,9.03
2018-02-18T11:05:20.010Z,7.23
2018-02-18T11:07:46.853Z,10.00
2018-02-18T11:10:13.428Z,6.23
2018-02-18T11:12:40.000Z,8.13
2018-02-18T11:15:06.585Z,10.30
2018-02-18T11:17:33.155Z,7.37
2018-02-18T11:19:59.736Z,12.00
2018-02-18T11:22:26.313Z,5.50
2018-02-18T11:24:52.905Z,8.10
2018-02-18T11:27:19.481Z,11.70
2018-02-18T11:29:46.056Z,7.70
2018-02-18T11:32:12.673Z,8.40
2018-02-18T11:34:39.259Z,8.57
2018-02-18T11:37:05.820Z,7.50
2018-02-18T11:39:32.510Z,8.10
2018-02-18T11:41:59.093Z,7.30
2018-02-18T11:44:25.664Z,13.27
2018-02-18T11:46:52.261Z,8.30
2018-02-18T11:49:18.844Z,11.53
2018-02-18T11:51:45.421Z,14.30
2018-02-18T11:54:12.216Z,11.03
2018-02-18T11:56:38.799Z,11.40
2018-02-18T11:59:05.375Z,9.97
2018-02-18T12:01:31.964Z,10.53
2018-02-18T12:03:58.533Z,7.80
2018-02-18T12:06:25.109Z,10.03
2018-02-18T12:08:51.711Z,9.63
2018-02-18T12:11:18.285Z,11.37
2018-02-18T12:13:44.864Z,7.93
2018-02-18T12:16:11.444Z,7.30
2018-02-18T12:18:38.022Z,10.50
2018-02-18T12:21:04.615Z,9.93
2018-02-18T12:23:31.184Z,9.97
2018-02-18T12:25:57.904Z,8.53
2018-02-18T12:28:24.507Z,9.53
2018-02-18T12:30:51.090Z,10.20
2018-02-18T12:33:17.677Z,11.43
2018-02-18T12:35:45.172Z,9.47
2018-02-18T12:38:11.839Z,9.60
2018-02-18T12:40:38.614Z,13.43
2018-02-18T12:43:05.188Z,9.77
2018-02-18T12:45:31.777Z,14.13
2018-02-18T12:47:58.553Z,12.50
2018-02-18T12:50:25.136Z,13.57
2018-02-18T12:52:51.716Z,11.97
2018-02-18T12:55:18.316Z,11.40
2018-02-18T12:57:45.000Z,11.77
2018-02-18T13:00:11.566Z,16.70
2018-02-18T13:02:38.189Z,8.77
2018-02-18T13:05:04.778Z,14.00
2018-02-18T13:07:31.350Z,12.67
2018-02-18T13:09:57.933Z,11.10
2018-02-18T13:12:24.517Z,16.40
2018-02-18T13:14:51.185Z,9.60
2018-02-18T13:17:17.761Z,12.90
2018-02-18T13:19:44.445Z,11.47
2018-02-18T13:22:11.020Z,13.17
2018-02-18T13:24:37.653Z,10.93
2018-02-18T13:27:04.246Z,13.63
2018-02-18T13:29:30.818Z,14.47
2018-02-18T13:31:57.406Z,10.03
2018-02-18T13:34:24.093Z,13.73
2018-02-18T13:36:50.720Z,11.23
2018-02-18T13:39:17.610Z,10.20
2018-02-18T13:41:44.540Z,8.73
2018-02-18T13:44:11.115Z,11.20
2018-02-18T13:46:37.707Z,11.73
2018-02-18T13:49:04.288Z,9.83
2018-02-18T13:51:30.867Z,12.53
2018-02-18T13:53:57.556Z,13.27
2018-02-18T13:56:24.211Z,18.90
2018-02-18T13:58:50.760Z,15.07
2018-02-18T14:01:17.364Z,14.17
2018-02-18T14:03:43.988Z,11.67
2018-02-18T14:06:10.564Z,12.70
2018-02-18T14:08:37.185Z,17.77
2018-02-18T14:11:03.764Z,11.17
2018-02-18T14:13:30.350Z,19.00
2018-02-18T14:15:56.944Z,12.60
2018-02-18T14:18:23.543Z,14.73
2018-02-18T14:20:50.128Z,15.17
2018-02-18T14:23:16.730Z,13.07
2018-02-18T14:25:43.299Z,10.13
2018-02-18T14:28:09.875Z,14.03
2018-02-18T14:30:36.767Z,12.17
2018-02-18T14:33:03.344Z,13.40
2018-02-18T14:35:29.929Z,15.30
2018-02-18T14:37:57.342Z,9.57
2018-02-18T14:40:23.932Z,13.50
2018-02-18T14:42:56.478Z,15.67
2018-02-18T14:45:29.009Z,11.00
2018-02-18T14:48:01.601Z,12.80
2018-02-18T14:50:34.015Z,11.10
2018-02-18T14:53:06.537Z,10.97
2018-02-18T14:55:38.981Z,11.77
2018-02-18T14:58:05.656Z,12.00
2018-02-18T15:00:32.229Z,9.80
2018-02-18T15:02:58.803Z,9.03
2018-02-18T15:05:25.438Z,11.80
2018-02-18T15:07:52.027Z,15.70
2018-02-18T15:10:18.608Z,13.27
2018-02-18T15:12:45.564Z,8.70
2018-02-18T15:15:12.135Z,19.10
2018-02-18T15:17:38.722Z,13.30
2018-02-18T15:20:05.309Z,10.67
2018-02-18T15:22:31.885Z,9.10
2018-02-18T15:24:58.842Z,10.83
2018-02-18T15:27:26.345Z,9.97
2018-02-18T15:29:52.911Z,16.20
2018-02-18T15:32:19.508Z,11.30
2018-02-18T15:34:46.088Z,11.00
2018-02-18T15:37:12.679Z,12.77
2018-02-18T15:39:39.289Z,11.43
2018-02-18T15:42:05.865Z,14.10
2018-02-18T15:44:32.440Z,9.27
2018-02-18T15:46:59.026Z,11.80
2018-02-18T15:49:25.599Z,13.27
2018-02-18T15:51:52.560Z,9.13
2018-02-18T15:54:19.140Z,10.40
2018-02-18T15:56:45.720Z,14.80
2018-02-18T15:59:12.338Z,9.27
2018-02-18T16:01:38.909Z,14.60
2018-02-18T16:04:05.840Z,13.40
2018-02-18T16:06:32.431Z,13.10
2018-02-18T16:08:59.000Z,13.20
2018-02-18T16:11:25.605Z,11.87
2018-02-18T16:13:52.187Z,15.80
2018-02-18T16:16:18.760Z,14.03
2018-02-18T16:18:45.347Z,14.07
2018-02-18T16:21:12.385Z,14.83
2018-02-18T16:23:38.972Z,20.83
2018-02-18T16:26:05.549Z,14.90
2018-02-18T16:28:32.140Z,15.50
2018-02-18T16:30:58.716Z,15.70
2018-02-18T16:33:25.296Z,15.20
2018-02-18T16:35:51.900Z,32.33
2018-02-18T16:38:18.484Z,29.20
2018-02-18T16:40:45.068Z,22.73
2018-02-18T16:43:11.790Z,22.10
2018-02-18T16:45:38.365Z,18.50
2018-02-18T16:48:04.946Z,13.43
2018-02-18T16:50:31.545Z,15.93
2018-02-18T16:52:58.135Z,17.23
2018-02-18T16:55:24.796Z,16.97
2018-02-18T16:57:51.403Z,17.70
2018-02-18T17:00:20.896Z,12.50
2018-02-18T17:02:47.476Z,23.80
2018-02-18T17:05:14.053Z,16.97
2018-02-18T17:07:40.645Z,14.10
2018-02-18T17:10:07.228Z,26.90
2018-02-18T17:12:33.821Z,13.53
2018-02-18T17:15:00.413Z,11.57
2018-02-18T17:17:26.984Z,13.27
2018-02-18T17:19:53.556Z,13.30
2018-02-18T17:22:20.152Z,12.70
2018-02-18T17:24:46.754Z,15.07
2018-02-18T17:27:13.323Z,16.00
2018-02-18T17:29:39.913Z,20.47
2018-02-18T17:32:06.501Z,19.83
2018-02-18T17:34:33.092Z,19.43
2018-02-18T17:36:59.701Z,23.03
2018-02-18T17:39:26.297Z,15.83
2018-02-18T17:41:52.905Z,13.70
2018-02-18T17:44:19.492Z,15.50
2018-02-18T17:46:46.072Z,15.77
2018-02-18T17:49:12.661Z,18.03
2018-02-18T17:51:39.285Z,16.10
2018-02-18T17:54:06.094Z,14.73
2018-02-18T17:56:32.990Z,16.60
2018-02-18T17:58:59.574Z,18.13
2018-02-18T18:01:26.168Z,19.20
2018-02-18T18:03:52.779Z,17.33
2018-02-18T18:06:19.360Z,16.60
2018-02-18T18:08:46.011Z,17.03
2018-02-18T18:11:12.710Z,17.03
2018-02-18T18:13:39.284Z,14.73
2018-02-18T18:16:05.869Z,18.17
2018-02-18T18:18:32.456Z,20.37
2018-02-18T18:20:59.053Z,25.73
2018-02-18T18:23:25.641Z,17.93
2018-02-18T18:25:52.338Z,14.23
2018-02-18T18:28:18.913Z,18.10
2018-02-18T18:30:45.502Z,24.47
2018-02-18T18:33:12.094Z,19.50
2018-02-18T18:35:38.693Z,20.30
2018-02-18T18:38:05.279Z,23.13
2018-02-18T18:40:31.863Z,23.77
2018-02-18T18:42:58.446Z,23.87
2018-02-18T18:45:25.038Z,22.87
2018-02-18T18:47:51.823Z,20.20
2018-02-18T18:52:45.928Z,23.50
2018-02-18T18:55:12.518Z,18.60
2018-02-18T18:57:39.117Z,20.70
2018-02-18T19:00:05.735Z,18.40
2018-02-18T19:02:32.312Z,20.93
2018-02-18T19:04:58.904Z,18.53
2018-02-18T19:07:25.505Z,20.30
2018-02-18T19:09:52.119Z,20.07
2018-02-18T19:12:18.708Z,17.00
2018-02-18T19:14:45.700Z,17.70
2018-02-18T19:17:12.276Z,21.60
2018-02-18T19:19:38.859Z,16.67
2018-02-18T19:22:06.289Z,16.27
2018-02-18T19:24:32.876Z,17.73
2018-02-18T19:26:59.480Z,19.43
2018-02-18T19:29:26.056Z,19.60
2018-02-18T19:31:52.685Z,24.60
2018-02-18T19:34:19.372Z,22.70
2018-02-18T19:36:50.807Z,19.90
2018-02-18T19:39:17.400Z,26.37
2018-02-18T19:41:43.997Z,17.20
2018-02-18T19:44:10.580Z,18.47
2018-02-18T19:46:37.184Z,17.30
2018-02-18T19:49:07.294Z,16.60
2018-02-18T19:51:33.905Z,19.73
2018-02-18T19:54:00.503Z,20.20
2018-02-18T19:56:27.100Z,26.63
2018-02-18T19:58:53.693Z,21.30
2018-02-18T20:01:22.872Z,18.40
2018-02-18T20:03:49.470Z,18.60
2018-02-18T20:06:16.063Z,26.43
2018-02-18T20:08:42.664Z,22.87
2018-02-18T20:11:09.252Z,21.37
2018-02-18T20:13:35.840Z,26.10
2018-02-18T20:16:02.428Z,24.00
2018-02-18T20:18:29.045Z,27.03
2018-02-18T20:20:55.632Z,19.00
2018-02-18T20:23:22.240Z,22.50
2018-02-18T20:25:48.834Z,24.40
2018-02-18T20:28:16.361Z,19.50
2018-02-18T20:30:43.000Z,23.33
2018-02-18T20:33:09.583Z,24.33
2018-02-18T20:35:36.208Z,24.07
2018-02-18T20:38:03.140Z,19.67
2018-02-18T20:40:29.730Z,26.83
2018-02-18T20:42:57.431Z,23.50
2018-02-18T20:45:24.046Z,22.23
2018-02-18T20:48:05.742Z,22.47
2018-02-18T20:50:34.164Z,21.83
2018-02-18T20:53:00.830Z,24.60
2018-02-18T20:55:27.414Z,17.27
2018-02-18T20:57:54.025Z,24.57
2018-02-18T21:00:20.613Z,31.80
2018-02-18T21:02:47.198Z,23.77
2018-02-18T21:05:13.797Z,26.40
2018-02-18T21:07:40.387Z,19.50
2018-02-18T21:10:06.973Z,21.63
2018-02-18T21:12:33.570Z,22.07
2018-02-18T21:15:00.161Z,24.40
2018-02-18T21:17:26.747Z,18.80
2018-02-18T21:19:53.342Z,22.97
2018-02-18T21:22:19.948Z,21.40
2018-02-18T21:24:46.708Z,19.23
2018-02-18T21:27:13.303Z,22.80
2018-02-18T21:29:39.882Z,16.60
2018-02-18T21:32:06.798Z,21.97
2018-02-18T21:34:33.392Z,20.87
2018-02-18T21:36:59.984Z,19.20
2018-02-18T21:39:26.581Z,19.90
2018-02-18T21:41:53.181Z,21.90
2018-02-18T21:44:19.790Z,21.67
2018-02-18T21:46:46.380Z,19.17
2018-02-18T21:49:16.458Z,19.77
2018-02-18T21:51:43.059Z,19.80
2018-02-18T21:54:09.642Z,19.53
2018-02-18T21:56:36.228Z,18.90
2018-02-18T21:59:03.320Z,20.73
2018-02-18T22:01:30.652Z,21.40
2018-02-18T22:03:57.343Z,20.33
2018-02-18T22:06:23.953Z,21.80
2018-02-18T22:08:50.600Z,21.13
2018-02-18T22:11:17.564Z,23.43
2018-02-18T22:13:44.173Z,20.45
2018-02-18T22:16:10.793Z,23.75
2018-02-18T22:18:37.394Z,18.73
2018-02-18T22:21:03.993Z,21.30
2018-02-18T22:23:31.511Z,20.80
2018-02-18T22:25:58.129Z,18.92
2018-02-18T22:28:24.727Z,21.37
2018-02-18T22:30:51.465Z,18.57
2018-02-18T22:33:18.103Z,19.48
2018-02-18T22:35:45.537Z,19.75
2018-02-18T22:38:12.121Z,17.08
2018-02-18T22:40:38.707Z,19.93
2018-02-18T22:43:05.522Z,20.00
2018-02-18T22:45:32.101Z,27.13
2018-02-18T22:47:58.696Z,21.17
2018-02-18T22:50:25.298Z,21.02
2018-02-18T22:52:51.882Z,18.67
2018-02-18T22:55:18.496Z,21.62
2018-02-18T22:57:45.088Z,22.40
2018-02-18T23:00:17.492Z,20.43
2018-02-18T23:02:44.088Z,19.08
2018-02-18T23:05:16.404Z,22.67
2018-02-18T23:07:42.996Z,21.45
2018-02-18T23:10:09.602Z,24.10
2018-02-18T23:12:36.188Z,24.25
2018-02-18T23:15:02.781Z,22.80
2018-02-18T23:17:29.396Z,17.60
2018-02-18T23:19:55.989Z,22.87
2018-02-18T23:22:22.581Z,16.00
2018-02-18T23:24:49.264Z,23.08
2018-02-18T23:27:16.000Z,21.92
2018-02-18T23:29:42.589Z,20.75
2018-02-18T23:32:09.196Z,20.55
2018-02-18T23:34:35.788Z,18.58
2018-02-18T23:37:02.369Z,22.37
2018-02-18T23:39:28.989Z,23.48
2018-02-18T23:41:55.583Z,20.35
2018-02-18T23:44:22.165Z,21.45
2018-02-18T23:46:48.784Z,24.77
2018-02-18T23:49:15.383Z,20.90
2018-02-18T23:51:41.967Z,22.62
2018-02-18T23:54:08.759Z,22.75
2018-02-18T23:56:35.354Z,23.87
2018-02-18T23:59:01.966Z,21.23
